PAL591 RPLL-VVTS
Flight info
| Callsign | PAL591 |
|---|---|
| Flight time | N/A |
| Altitude | 38000 |
| Route | BETEL2R BETEL M765 REKEL/N0453F340 M765 PANDI/K0848F380 N500 PTH PTH5M |
| Aircraft | A333/H-SDE3GHIJ2J3J5M1RVWXY/LB2D1 |
Departure
| Time | 2026-05-06 19:49 |
|---|---|
| Airport | Ninoy Aquino International Airport (RPLL) |
Arrival
| Time | N/A |
|---|---|
| Airport | Tan Son Nhat International Airport (VVTS) |
| Time | Latitude | Longitude | Altitude | Speed | Heading |
|---|---|---|---|---|---|
| 2026-05-06 19:34 | 14.50502 | 121.00720 | 66 ft | 0 kts | 277° |
| 2026-05-06 19:41 | 14.50501 | 121.00732 | 65 ft | 4 kts | 279° |
| 2026-05-06 19:41 | 14.50495 | 121.00759 | 62 ft | 4 kts | 285° |
| 2026-05-06 19:41 | 14.50488 | 121.00786 | 62 ft | 4 kts | 288° |
| 2026-05-06 19:42 | 14.50481 | 121.00807 | 62 ft | 4 kts | 283° |
| 2026-05-06 19:42 | 14.50480 | 121.00833 | 63 ft | 4 kts | 249° |
| 2026-05-06 19:42 | 14.50493 | 121.00857 | 62 ft | 4 kts | 234° |
| 2026-05-06 19:42 | 14.50499 | 121.00865 | 62 ft | 0 kts | 240° |
| 2026-05-06 19:45 | 14.50489 | 121.00847 | 64 ft | 9 kts | 240° |
| 2026-05-06 19:46 | 14.50445 | 121.00796 | 63 ft | 9 kts | 191° |
| 2026-05-06 19:46 | 14.50380 | 121.00777 | 65 ft | 10 kts | 214° |
| 2026-05-06 19:46 | 14.50332 | 121.00713 | 63 ft | 13 kts | 239° |
| 2026-05-06 19:46 | 14.50275 | 121.00613 | 61 ft | 18 kts | 240° |
| 2026-05-06 19:47 | 14.50210 | 121.00495 | 61 ft | 20 kts | 240° |
| 2026-05-06 19:47 | 14.50140 | 121.00370 | 62 ft | 21 kts | 240° |
| 2026-05-06 19:47 | 14.50067 | 121.00239 | 62 ft | 22 kts | 240° |
| 2026-05-06 19:47 | 14.49989 | 121.00101 | 64 ft | 23 kts | 240° |
| 2026-05-06 19:48 | 14.49924 | 120.99988 | 64 ft | 12 kts | 232° |
| 2026-05-06 19:48 | 14.49851 | 120.99982 | 65 ft | 12 kts | 156° |
| 2026-05-06 19:48 | 14.49808 | 121.00037 | 64 ft | 9 kts | 89° |
| 2026-05-06 19:48 | 14.49854 | 121.00130 | 64 ft | 31 kts | 61° |
| 2026-05-06 19:49 | 14.50077 | 121.00533 | 60 ft | 97 kts | 60° |
| 2026-05-06 19:49 | 14.50512 | 121.01312 | 64 ft | 152 kts | 60° |
| 2026-05-06 19:49 | 14.51120 | 121.02389 | 336 ft | 184 kts | 59° |
| 2026-05-06 19:49 | 14.51771 | 121.03512 | 1246 ft | 180 kts | 58° |
| 2026-05-06 19:50 | 14.52414 | 121.04616 | 2083 ft | 184 kts | 58° |
| 2026-05-06 19:50 | 14.53103 | 121.05833 | 2493 ft | 208 kts | 60° |
| 2026-05-06 19:50 | 14.53845 | 121.07209 | 2861 ft | 230 kts | 61° |
| 2026-05-06 19:50 | 14.54644 | 121.08697 | 3421 ft | 241 kts | 61° |
| 2026-05-06 19:51 | 14.55479 | 121.10232 | 4128 ft | 248 kts | 60° |
| 2026-05-06 19:51 | 14.56384 | 121.11767 | 4895 ft | 253 kts | 53° |
| 2026-05-06 19:51 | 14.57708 | 121.12980 | 5655 ft | 259 kts | 28° |
| 2026-05-06 19:51 | 14.59432 | 121.13466 | 6411 ft | 265 kts | 6° |
| 2026-05-06 19:52 | 14.61313 | 121.13531 | 7178 ft | 269 kts | 2° |
| 2026-05-06 19:52 | 14.63175 | 121.13520 | 7955 ft | 272 kts | 1° |
| 2026-05-06 19:52 | 14.65080 | 121.13506 | 8744 ft | 276 kts | 1° |
| 2026-05-06 19:52 | 14.67007 | 121.13262 | 9546 ft | 283 kts | 345° |
| 2026-05-06 19:53 | 14.68742 | 121.12262 | 10260 ft | 292 kts | 318° |
| 2026-05-06 19:53 | 14.69863 | 121.10509 | 10999 ft | 299 kts | 289° |
| 2026-05-06 19:53 | 14.70166 | 121.08380 | 11770 ft | 301 kts | 271° |
| 2026-05-06 19:53 | 14.70154 | 121.06211 | 12546 ft | 303 kts | 268° |
| 2026-05-06 19:54 | 14.70102 | 121.04031 | 13305 ft | 306 kts | 268° |
| 2026-05-06 19:54 | 14.70056 | 121.01824 | 14011 ft | 309 kts | 269° |
| 2026-05-06 19:54 | 14.69860 | 120.99604 | 14630 ft | 312 kts | 257° |
| 2026-05-06 19:54 | 14.69224 | 120.97405 | 14981 ft | 328 kts | 250° |
| 2026-05-06 19:55 | 14.68411 | 120.95143 | 15220 ft | 345 kts | 249° |
| 2026-05-06 19:55 | 14.67534 | 120.92769 | 15483 ft | 362 kts | 249° |
| 2026-05-06 19:55 | 14.66626 | 120.90289 | 15752 ft | 377 kts | 249° |
| 2026-05-06 19:55 | 14.65691 | 120.87716 | 16167 ft | 385 kts | 249° |
| 2026-05-06 19:56 | 14.64734 | 120.85116 | 16696 ft | 390 kts | 247° |
| 2026-05-06 19:56 | 14.63499 | 120.82610 | 17229 ft | 393 kts | 237° |
| 2026-05-06 19:56 | 14.61970 | 120.80296 | 17800 ft | 397 kts | 233° |
| 2026-05-06 19:56 | 14.60330 | 120.77976 | 18323 ft | 400 kts | 233° |
| 2026-05-06 19:57 | 14.58672 | 120.75650 | 18803 ft | 403 kts | 233° |
| 2026-05-06 19:57 | 14.57008 | 120.73311 | 19313 ft | 405 kts | 233° |
| 2026-05-06 19:57 | 14.55338 | 120.70958 | 19811 ft | 408 kts | 233° |
| 2026-05-06 19:57 | 14.53658 | 120.68588 | 20310 ft | 410 kts | 233° |
| 2026-05-06 19:58 | 14.51970 | 120.66205 | 20786 ft | 412 kts | 233° |
| 2026-05-06 19:58 | 14.50272 | 120.63807 | 21276 ft | 415 kts | 233° |
| 2026-05-06 19:58 | 14.48561 | 120.61391 | 21760 ft | 417 kts | 233° |
| 2026-05-06 19:58 | 14.46844 | 120.58967 | 22193 ft | 421 kts | 233° |
| 2026-05-06 19:59 | 14.45107 | 120.56515 | 22605 ft | 426 kts | 233° |
| 2026-05-06 19:59 | 14.43350 | 120.54035 | 23047 ft | 429 kts | 234° |
| 2026-05-06 19:59 | 14.41583 | 120.51542 | 23463 ft | 433 kts | 234° |
| 2026-05-06 19:59 | 14.39803 | 120.49032 | 23907 ft | 433 kts | 234° |
| 2026-05-06 20:00 | 14.38025 | 120.46525 | 24376 ft | 433 kts | 234° |
| 2026-05-06 20:00 | 14.36240 | 120.44008 | 24770 ft | 435 kts | 234° |
| 2026-05-06 20:00 | 14.34473 | 120.41519 | 25172 ft | 437 kts | 234° |
| 2026-05-06 20:00 | 14.32673 | 120.38983 | 25601 ft | 438 kts | 234° |
| 2026-05-06 20:01 | 14.30867 | 120.36439 | 25979 ft | 440 kts | 234° |
| 2026-05-06 20:01 | 14.29059 | 120.33893 | 26375 ft | 441 kts | 235° |
| 2026-05-06 20:01 | 14.27242 | 120.31336 | 26783 ft | 443 kts | 234° |
| 2026-05-06 20:01 | 14.25422 | 120.28776 | 27170 ft | 444 kts | 235° |
| 2026-05-06 20:02 | 14.23586 | 120.26194 | 27557 ft | 446 kts | 235° |
| 2026-05-06 20:02 | 14.21749 | 120.23611 | 27932 ft | 448 kts | 235° |
| 2026-05-06 20:02 | 14.19901 | 120.21013 | 28360 ft | 449 kts | 234° |
| 2026-05-06 20:02 | 14.18149 | 120.18353 | 28713 ft | 451 kts | 240° |
| 2026-05-06 20:03 | 14.16722 | 120.15467 | 29073 ft | 452 kts | 246° |
| 2026-05-06 20:03 | 14.15454 | 120.12488 | 29441 ft | 454 kts | 248° |
| 2026-05-06 20:03 | 14.14272 | 120.09517 | 29779 ft | 456 kts | 249° |
| 2026-05-06 20:03 | 14.13092 | 120.06462 | 30015 ft | 460 kts | 250° |
| 2026-05-06 20:04 | 14.11915 | 120.03399 | 30310 ft | 462 kts | 250° |
| 2026-05-06 20:04 | 14.10725 | 120.00318 | 30658 ft | 462 kts | 249° |
| 2026-05-06 20:04 | 14.09523 | 119.97237 | 30931 ft | 464 kts | 249° |
| 2026-05-06 20:04 | 14.08312 | 119.94153 | 31188 ft | 466 kts | 249° |
| 2026-05-06 20:05 | 14.07088 | 119.91057 | 31506 ft | 467 kts | 249° |
| 2026-05-06 20:05 | 14.05854 | 119.87946 | 31826 ft | 468 kts | 249° |
| 2026-05-06 20:05 | 14.05037 | 119.85887 | 32029 ft | 469 kts | 249° |
| 2026-05-06 20:05 | 14.03803 | 119.82782 | 32425 ft | 468 kts | 249° |
| 2026-05-06 20:06 | 14.02170 | 119.78676 | 32934 ft | 467 kts | 249° |
| 2026-05-06 20:06 | 14.00942 | 119.75585 | 33322 ft | 466 kts | 249° |
| 2026-05-06 20:06 | 13.99710 | 119.72487 | 33744 ft | 465 kts | 249° |
| 2026-05-06 20:06 | 13.98883 | 119.70407 | 34005 ft | 463 kts | 249° |
| 2026-05-06 20:07 | 13.97666 | 119.67348 | 34402 ft | 461 kts | 249° |
| 2026-05-06 20:07 | 13.96453 | 119.64298 | 34795 ft | 458 kts | 248° |
| 2026-05-06 20:07 | 13.95265 | 119.61315 | 35133 ft | 457 kts | 248° |
| 2026-05-06 20:07 | 13.94057 | 119.58281 | 35470 ft | 455 kts | 248° |
| 2026-05-06 20:08 | 13.92858 | 119.55270 | 35816 ft | 454 kts | 248° |
| 2026-05-06 20:08 | 13.91660 | 119.52265 | 36135 ft | 453 kts | 248° |
| 2026-05-06 20:08 | 13.90464 | 119.49263 | 36429 ft | 453 kts | 248° |
| 2026-05-06 20:08 | 13.89267 | 119.46264 | 36730 ft | 452 kts | 248° |
| 2026-05-06 20:09 | 13.88073 | 119.43271 | 37065 ft | 451 kts | 248° |
| 2026-05-06 20:09 | 13.86885 | 119.40295 | 37389 ft | 449 kts | 248° |
| 2026-05-06 20:09 | 13.85701 | 119.37329 | 37714 ft | 447 kts | 248° |
| 2026-05-06 20:09 | 13.84521 | 119.34376 | 37842 ft | 446 kts | 248° |
| 2026-05-06 20:10 | 13.82172 | 119.28500 | 37860 ft | 441 kts | 248° |
| 2026-05-06 20:10 | 13.79837 | 119.22665 | 37863 ft | 440 kts | 248° |
| 2026-05-06 20:11 | 13.77519 | 119.16875 | 37863 ft | 441 kts | 248° |
| 2026-05-06 20:11 | 13.75180 | 119.11035 | 37846 ft | 441 kts | 248° |
| 2026-05-06 20:12 | 13.72842 | 119.05207 | 37859 ft | 441 kts | 248° |
| 2026-05-06 20:12 | 13.70501 | 118.99373 | 37855 ft | 441 kts | 248° |
| 2026-05-06 20:13 | 13.68161 | 118.93547 | 37856 ft | 441 kts | 248° |
| 2026-05-06 20:13 | 13.65820 | 118.87723 | 37858 ft | 441 kts | 248° |
| 2026-05-06 20:14 | 13.63471 | 118.81885 | 37865 ft | 441 kts | 248° |
| 2026-05-06 20:14 | 13.61124 | 118.76054 | 37844 ft | 442 kts | 248° |
| 2026-05-06 20:15 | 13.58788 | 118.70256 | 37863 ft | 441 kts | 248° |
| 2026-05-06 20:15 | 13.56437 | 118.64427 | 37861 ft | 441 kts | 248° |
| 2026-05-06 20:16 | 13.54080 | 118.58584 | 37859 ft | 443 kts | 248° |
| 2026-05-06 20:16 | 13.51721 | 118.52745 | 37862 ft | 443 kts | 248° |
| 2026-05-06 20:17 | 13.49353 | 118.46887 | 37841 ft | 443 kts | 248° |
| 2026-05-06 20:17 | 13.46987 | 118.41039 | 37861 ft | 443 kts | 248° |
| 2026-05-06 20:18 | 13.44619 | 118.35187 | 37861 ft | 443 kts | 248° |
| 2026-05-06 20:18 | 13.42245 | 118.29327 | 37863 ft | 444 kts | 248° |
| 2026-05-06 20:19 | 13.39882 | 118.23499 | 37859 ft | 445 kts | 248° |
| 2026-05-06 20:19 | 13.37502 | 118.17633 | 37843 ft | 445 kts | 248° |
| 2026-05-06 20:20 | 13.35119 | 118.11765 | 37864 ft | 445 kts | 248° |
| 2026-05-06 20:20 | 13.32737 | 118.05903 | 37848 ft | 445 kts | 248° |
| 2026-05-06 20:21 | 13.30364 | 118.00068 | 37867 ft | 445 kts | 248° |
| 2026-05-06 20:21 | 13.27975 | 117.94197 | 37869 ft | 446 kts | 248° |
| 2026-05-06 20:22 | 13.25580 | 117.88317 | 37857 ft | 446 kts | 248° |
| 2026-05-06 20:22 | 13.23189 | 117.82452 | 37861 ft | 445 kts | 248° |
| 2026-05-06 20:23 | 13.20801 | 117.76599 | 37862 ft | 444 kts | 248° |
| 2026-05-06 20:23 | 13.18411 | 117.70743 | 37862 ft | 444 kts | 248° |
| 2026-05-06 20:24 | 13.16023 | 117.64933 | 37860 ft | 444 kts | 247° |
| 2026-05-06 20:24 | 13.13611 | 117.59090 | 37862 ft | 444 kts | 247° |
| 2026-05-06 20:25 | 13.11210 | 117.53244 | 37846 ft | 444 kts | 247° |
| 2026-05-06 20:25 | 13.08814 | 117.47397 | 37862 ft | 444 kts | 247° |
| 2026-05-06 20:26 | 13.06417 | 117.41553 | 37863 ft | 445 kts | 247° |
| 2026-05-06 20:26 | 13.04011 | 117.35690 | 37860 ft | 445 kts | 248° |
| 2026-05-06 20:27 | 13.01630 | 117.29826 | 37854 ft | 445 kts | 248° |
| 2026-05-06 20:27 | 12.99246 | 117.23966 | 37854 ft | 445 kts | 248° |
| 2026-05-06 20:28 | 12.96858 | 117.18144 | 37853 ft | 445 kts | 248° |
| 2026-05-06 20:28 | 12.94453 | 117.12294 | 37854 ft | 446 kts | 248° |
| 2026-05-06 20:29 | 12.92036 | 117.06421 | 37857 ft | 446 kts | 248° |
| 2026-05-06 20:29 | 12.89621 | 117.00557 | 37853 ft | 446 kts | 248° |
| 2026-05-06 20:30 | 12.85995 | 116.91763 | 37858 ft | 446 kts | 248° |
| 2026-05-06 20:31 | 12.83595 | 116.85945 | 37860 ft | 446 kts | 248° |
| 2026-05-06 20:31 | 12.81159 | 116.80046 | 37839 ft | 447 kts | 248° |
| 2026-05-06 20:32 | 12.78746 | 116.74207 | 37857 ft | 447 kts | 248° |
| 2026-05-06 20:32 | 12.76317 | 116.68335 | 37857 ft | 447 kts | 248° |
| 2026-05-06 20:33 | 12.73888 | 116.62466 | 37857 ft | 447 kts | 248° |
| 2026-05-06 20:33 | 12.71457 | 116.56595 | 37856 ft | 448 kts | 248° |
| 2026-05-06 20:34 | 12.69021 | 116.50719 | 37854 ft | 448 kts | 248° |
| 2026-05-06 20:34 | 12.66584 | 116.44844 | 37855 ft | 449 kts | 248° |
| 2026-05-06 20:35 | 12.64142 | 116.38961 | 37852 ft | 449 kts | 248° |
| 2026-05-06 20:35 | 12.61717 | 116.33122 | 37850 ft | 449 kts | 248° |
| 2026-05-06 20:36 | 12.59270 | 116.27236 | 37848 ft | 449 kts | 248° |
| 2026-05-06 20:36 | 12.56822 | 116.21351 | 37856 ft | 449 kts | 248° |
| 2026-05-06 20:37 | 12.54373 | 116.15467 | 37857 ft | 449 kts | 248° |
| 2026-05-06 20:37 | 12.51923 | 116.09586 | 37858 ft | 449 kts | 248° |
| 2026-05-06 20:38 | 12.49472 | 116.03706 | 37853 ft | 449 kts | 248° |
| 2026-05-06 20:38 | 12.47019 | 115.97827 | 37850 ft | 449 kts | 248° |
| 2026-05-06 20:39 | 12.44580 | 115.91983 | 37855 ft | 449 kts | 248° |
| 2026-05-06 20:39 | 12.42122 | 115.86099 | 37855 ft | 450 kts | 248° |
| 2026-05-06 20:40 | 12.39658 | 115.80206 | 37850 ft | 450 kts | 248° |
| 2026-05-06 20:40 | 12.37195 | 115.74318 | 37853 ft | 450 kts | 248° |
| 2026-05-06 20:41 | 12.34733 | 115.68437 | 37854 ft | 450 kts | 248° |
| 2026-05-06 20:41 | 12.32283 | 115.62589 | 37852 ft | 450 kts | 248° |
| 2026-05-06 20:42 | 12.29816 | 115.56704 | 37855 ft | 450 kts | 248° |
| 2026-05-06 20:42 | 12.27344 | 115.50811 | 37855 ft | 451 kts | 248° |
| 2026-05-06 20:43 | 12.24873 | 115.44925 | 37855 ft | 451 kts | 248° |
| 2026-05-06 20:43 | 12.22399 | 115.39037 | 37852 ft | 451 kts | 248° |
| 2026-05-06 20:44 | 12.19937 | 115.33179 | 37855 ft | 451 kts | 248° |
| 2026-05-06 20:44 | 12.17458 | 115.27288 | 37854 ft | 451 kts | 248° |
| 2026-05-06 20:45 | 12.14980 | 115.21399 | 37855 ft | 451 kts | 248° |
| 2026-05-06 20:45 | 12.12500 | 115.15513 | 37855 ft | 451 kts | 248° |
| 2026-05-06 20:46 | 12.10020 | 115.09629 | 37856 ft | 451 kts | 248° |
| 2026-05-06 20:46 | 12.07554 | 115.03785 | 37853 ft | 451 kts | 248° |
| 2026-05-06 20:47 | 12.05071 | 114.97901 | 37855 ft | 451 kts | 248° |
| 2026-05-06 20:47 | 12.02588 | 114.92024 | 37852 ft | 450 kts | 248° |
| 2026-05-06 20:48 | 12.00103 | 114.86144 | 37854 ft | 450 kts | 248° |
| 2026-05-06 20:48 | 11.97622 | 114.80278 | 37855 ft | 450 kts | 248° |
| 2026-05-06 20:49 | 11.95135 | 114.74400 | 37849 ft | 450 kts | 248° |
| 2026-05-06 20:49 | 11.92651 | 114.68534 | 37852 ft | 450 kts | 248° |
| 2026-05-06 20:50 | 11.90181 | 114.62706 | 37856 ft | 450 kts | 248° |
| 2026-05-06 20:50 | 11.87693 | 114.56838 | 37855 ft | 450 kts | 248° |
| 2026-05-06 20:51 | 11.85205 | 114.50975 | 37852 ft | 450 kts | 248° |
| 2026-05-06 20:51 | 11.82714 | 114.45107 | 37855 ft | 450 kts | 248° |
| 2026-05-06 20:52 | 11.80222 | 114.39242 | 37854 ft | 450 kts | 248° |
| 2026-05-06 20:52 | 11.77729 | 114.33379 | 37850 ft | 450 kts | 248° |
| 2026-05-06 20:53 | 11.75238 | 114.27523 | 37850 ft | 450 kts | 248° |
| 2026-05-06 20:53 | 11.72743 | 114.21663 | 37849 ft | 450 kts | 248° |
| 2026-05-06 20:54 | 11.70266 | 114.15848 | 37853 ft | 450 kts | 248° |
| 2026-05-06 20:54 | 11.67770 | 114.09993 | 37850 ft | 450 kts | 248° |
| 2026-05-06 20:55 | 11.65268 | 114.04130 | 37851 ft | 451 kts | 248° |
| 2026-05-06 20:55 | 11.63399 | 113.98048 | 37852 ft | 449 kts | 261° |
| 2026-05-06 20:56 | 11.62507 | 113.91742 | 37850 ft | 449 kts | 264° |
| 2026-05-06 20:56 | 11.61803 | 113.85414 | 37852 ft | 449 kts | 264° |
| 2026-05-06 20:57 | 11.61234 | 113.80143 | 37852 ft | 449 kts | 264° |
| 2026-05-06 20:57 | 11.60531 | 113.73814 | 37847 ft | 449 kts | 264° |
| 2026-05-06 20:58 | 11.59811 | 113.67478 | 37848 ft | 450 kts | 264° |